Time;durP1;ratioP1;P1;durP2;ratioP2;P2;SDS_P1;SDS_P2;PMS_P1;PMS_P2;Temp;Humidity;BMP_temperature;BMP_pressure;BME280_temperature;BME280_humidity;BME280_pressure;Samples;Min_cycle;Max_cycle;Signal;HPM_P1;HPM_P2
2023/09/30 00:01:03;;;;;;;5.13;3.30;;;21.80;67.10;22.50;101687.00;;;;5022593;28;20191;-49
2023/09/30 00:03:28;;;;;;;4.33;3.43;;;21.80;67.00;22.40;101680.00;;;;4995471;28;20250;-49
2023/09/30 00:05:54;;;;;;;4.57;3.40;;;21.80;67.00;22.40;101697.00;;;;5009176;28;20629;-50
2023/09/30 00:08:20;;;;;;;5.03;3.37;;;21.70;66.70;22.40;101693.00;;;;5007803;28;20631;-48
2023/09/30 00:10:46;;;;;;;4.90;3.87;;;21.70;66.80;22.40;101688.00;;;;5007589;28;20550;-48
2023/09/30 00:13:12;;;;;;;5.40;3.50;;;21.70;66.70;22.40;101690.00;;;;5007761;28;20203;-49
2023/09/30 00:15:38;;;;;;;4.87;3.47;;;21.70;66.70;22.40;101702.00;;;;5021861;28;20187;-48
2023/09/30 00:18:05;;;;;;;5.67;3.63;;;21.70;66.70;22.30;101708.00;;;;5008101;28;20187;-50
2023/09/30 00:20:31;;;;;;;5.13;3.57;;;21.70;66.70;22.30;101723.00;;;;5008488;28;20199;-49
2023/09/30 00:22:56;;;;;;;5.30;3.80;;;21.60;66.50;22.30;101711.00;;;;5008311;28;20317;-48
2023/09/30 00:25:22;;;;;;;5.20;3.63;;;21.60;66.50;22.30;101708.00;;;;5008293;28;20187;-49
2023/09/30 00:27:48;;;;;;;3.90;3.10;;;21.60;66.60;22.30;101699.00;;;;4990275;28;20206;-48
2023/09/30 00:30:14;;;;;;;4.17;3.50;;;21.60;66.40;21.80;101651.00;;;;5008584;28;20215;-49
2023/09/30 00:32:40;;;;;;;5.07;3.50;;;21.60;66.40;22.20;101706.00;;;;5008210;28;20294;-48
2023/09/30 00:35:11;;;;;;;3.80;3.20;;;21.50;66.30;22.20;101703.00;;;;5008161;28;20658;-49
2023/09/30 00:37:40;;;;;;;3.80;3.20;;;21.60;66.50;22.20;101680.00;;;;5008454;28;20241;-49
2023/09/30 00:40:06;;;;;;;4.43;3.30;;;21.50;66.30;22.20;101691.00;;;;5007844;28;20196;-49
2023/09/30 00:42:32;;;;;;;3.87;3.30;;;21.50;66.30;22.20;101697.00;;;;5006446;28;20294;-48
2023/09/30 00:44:58;;;;;;;3.77;3.30;;;21.50;66.40;22.10;101688.00;;;;5008196;28;20658;-49
2023/09/30 00:47:24;;;;;;;4.60;3.10;;;21.50;66.30;22.10;101691.00;;;;5008211;28;20250;-49
2023/09/30 00:49:50;;;;;;;3.83;3.10;;;21.40;66.20;22.10;101704.00;;;;5006700;28;20180;-50
2023/09/30 00:52:17;;;;;;;4.43;3.30;;;21.40;66.20;22.10;101699.00;;;;5006860;28;20223;-49
2023/09/30 00:54:43;;;;;;;4.60;3.10;;;21.40;66.30;22.10;101695.00;;;;5006502;28;20278;-49
2023/09/30 00:57:09;;;;;;;4.67;3.20;;;21.40;66.30;22.10;101707.00;;;;5023067;28;20179;-50
2023/09/30 00:59:35;;;;;;;4.00;2.90;;;21.40;66.30;22.10;101723.00;;;;5008035;28;20198;-49
2023/09/30 01:02:01;;;;;;;4.93;3.17;;;21.40;66.30;22.00;101705.00;;;;5006395;28;20222;-49
2023/09/30 01:04:27;;;;;;;4.30;3.03;;;21.40;66.20;22.00;101713.00;;;;4990870;28;20183;-49
2023/09/30 01:06:53;;;;;;;3.67;3.00;;;21.30;66.20;22.00;101705.00;;;;5008426;28;20758;-49
2023/09/30 01:09:20;;;;;;;4.63;3.20;;;21.30;67.00;22.00;101708.00;;;;5006128;28;20708;-49
2023/09/30 01:11:45;;;;;;;3.03;2.67;;;21.30;66.20;22.00;101725.00;;;;5008355;28;20227;-49
2023/09/30 01:14:28;;;;;;;3.47;2.90;;;21.30;66.10;22.00;101733.00;;;;5007467;28;20669;-49
2023/09/30 01:16:54;;;;;;;4.03;2.60;;;21.30;66.20;21.90;101730.00;;;;5007921;28;20183;-45
2023/09/30 01:19:20;;;;;;;3.30;3.00;;;21.30;66.20;21.90;101732.00;;;;5007601;28;20206;-44
2023/09/30 01:21:48;;;;;;;3.57;3.00;;;21.30;66.20;21.90;101723.00;;;;5007633;28;20239;-44
2023/09/30 01:24:17;;;;;;;3.83;2.90;;;21.20;66.20;21.90;101717.00;;;;5008139;28;20180;-44
2023/09/30 01:26:43;;;;;;;3.80;2.77;;;21.30;66.20;21.90;101708.00;;;;5011197;28;20211;-45
2023/09/30 01:29:12;;;;;;;4.33;2.83;;;21.20;66.10;21.90;101699.00;;;;5010479;28;20203;-45
2023/09/30 01:31:38;;;;;;;3.37;2.90;;;21.20;66.10;21.90;101706.00;;;;5007794;28;20643;-45
2023/09/30 01:34:04;;;;;;;3.60;2.73;;;21.20;66.10;21.80;101724.00;;;;5013189;28;20245;-45
2023/09/30 01:36:30;;;;;;;3.10;2.70;;;21.20;66.10;21.80;101734.00;;;;5010626;28;20750;-45
2023/09/30 01:38:56;;;;;;;3.50;2.70;;;21.20;66.10;21.80;101731.00;;;;5010928;28;20235;-45
2023/09/30 01:41:22;;;;;;;3.37;2.60;;;21.20;66.10;21.80;101728.00;;;;5010869;28;20210;-44
2023/09/30 01:43:48;;;;;;;2.80;2.47;;;21.10;66.00;21.80;101730.00;;;;5009460;28;20200;-45
2023/09/30 01:46:14;;;;;;;3.10;2.40;;;21.10;66.00;21.80;101738.00;;;;5011005;28;20650;-47
2023/09/30 01:48:40;;;;;;;3.20;2.60;;;21.20;66.10;21.80;101731.00;;;;5010835;28;20179;-45
2023/09/30 01:51:06;;;;;;;2.40;2.20;;;21.10;66.00;21.80;101725.00;;;;5011005;28;20192;-45
2023/09/30 01:53:32;;;;;;;2.60;2.40;;;21.10;66.00;21.80;101722.00;;;;5010862;28;20760;-46
2023/09/30 01:55:58;;;;;;;4.30;2.70;;;21.10;66.10;21.50;101719.00;;;;5009115;28;20607;-45
2023/09/30 01:58:25;;;;;;;3.47;2.70;;;21.10;66.00;21.70;101721.00;;;;5021117;28;20175;-45
2023/09/30 02:00:52;;;;;;;3.73;2.63;;;21.10;66.00;21.70;101734.00;;;;5019651;28;20183;-45
2023/09/30 02:03:17;;;;;;;3.00;2.70;;;21.00;65.90;21.70;101733.00;;;;5010622;28;20211;-45
2023/09/30 02:05:43;;;;;;;2.63;2.43;;;21.10;66.00;21.70;101749.00;;;;5010621;28;20229;-44
2023/09/30 02:08:09;;;;;;;2.50;2.30;;;21.00;65.90;21.60;101749.00;;;;5009683;28;20191;-45
2023/09/30 02:10:35;;;;;;;3.00;2.57;;;21.00;66.00;21.60;101749.00;;;;5010401;28;20216;-45
2023/09/30 02:13:00;;;;;;;2.97;2.67;;;21.00;66.00;21.60;101727.00;;;;5022010;28;20221;-46
2023/09/30 02:15:26;;;;;;;3.47;2.60;;;21.00;66.00;21.60;101741.00;;;;5014302;28;20213;-45
2023/09/30 02:17:52;;;;;;;2.70;2.50;;;21.00;65.90;21.60;101745.00;;;;5009819;28;20690;-45
2023/09/30 02:20:25;;;;;;;2.57;2.33;;;20.90;65.80;21.60;101750.00;;;;5009668;28;20187;-44
2023/09/30 02:22:52;;;;;;;2.80;2.50;;;21.00;65.80;21.60;101748.00;;;;5010293;28;20238;-45
2023/09/30 02:25:18;;;;;;;2.80;2.30;;;21.00;65.90;21.50;101739.00;;;;5010550;28;20282;-45
2023/09/30 02:27:44;;;;;;;3.60;2.50;;;20.90;65.80;21.50;101738.00;;;;5009845;28;20274;-45
2023/09/30 02:30:11;;;;;;;2.77;2.50;;;20.90;65.80;21.50;101743.00;;;;5010101;28;20744;-46
2023/09/30 02:32:40;;;;;;;2.60;2.40;;;20.90;65.90;21.50;101742.00;;;;5009844;28;20203;-45
2023/09/30 02:35:07;;;;;;;2.77;2.50;;;20.90;65.80;21.50;101734.00;;;;5008291;28;20599;-45
2023/09/30 02:37:36;;;;;;;2.77;2.50;;;20.90;65.80;21.50;101732.00;;;;5009816;28;20187;-45
2023/09/30 02:40:14;;;;;;;3.23;2.70;;;20.80;65.70;21.50;101733.00;;;;5008670;28;20191;-45
2023/09/30 02:42:40;;;;;;;2.77;2.57;;;20.80;65.70;21.50;101733.00;;;;5007941;28;20207;-45
2023/09/30 02:45:07;;;;;;;3.83;2.80;;;20.80;65.80;21.40;101734.00;;;;5008759;28;20637;-47
2023/09/30 02:47:34;;;;;;;3.13;2.73;;;20.80;65.60;21.40;101726.00;;;;5009430;28;20768;-45
2023/09/30 02:50:00;;;;;;;2.60;2.40;;;20.80;65.60;21.40;101721.00;;;;5009619;28;20183;-46
2023/09/30 02:52:25;;;;;;;2.97;2.60;;;20.80;65.60;21.40;101714.00;;;;5008533;28;20210;-45
2023/09/30 02:54:54;;;;;;;4.23;2.40;;;20.80;65.60;21.40;101737.00;;;;5009874;28;20786;-45
2023/09/30 02:57:20;;;;;;;2.80;2.43;;;20.80;65.50;21.40;101742.00;;;;5009899;28;20560;-45
2023/09/30 02:59:47;;;;;;;3.07;2.30;;;20.80;65.50;21.40;101739.00;;;;5009521;28;20202;-45
2023/09/30 03:02:12;;;;;;;2.73;2.37;;;20.80;65.50;21.40;101736.00;;;;5010360;28;20270;-45
2023/09/30 03:04:38;;;;;;;3.37;2.33;;;20.80;65.60;21.40;101740.00;;;;5010719;28;20182;-45
2023/09/30 03:07:04;;;;;;;3.73;2.50;;;20.70;65.40;21.40;101749.00;;;;5010861;28;20261;-45
2023/09/30 03:09:31;;;;;;;2.93;2.40;;;20.70;65.50;21.30;101751.00;;;;5010644;28;20610;-45
2023/09/30 03:11:59;;;;;;;3.00;2.70;;;20.70;65.50;21.30;101733.00;;;;5010652;28;20203;-45
2023/09/30 03:14:25;;;;;;;2.73;2.37;;;20.70;65.40;21.30;101753.00;;;;4993484;28;20190;-44
2023/09/30 03:16:51;;;;;;;2.80;2.50;;;20.70;65.40;21.30;101752.00;;;;4993169;28;20187;-44
2023/09/30 03:19:17;;;;;;;3.20;2.70;;;20.70;65.50;21.30;101756.00;;;;5010373;28;20199;-47
2023/09/30 03:21:43;;;;;;;2.50;2.30;;;20.60;65.40;21.30;101745.00;;;;5010265;28;20211;-48
2023/09/30 03:24:09;;;;;;;3.00;2.50;;;20.70;65.50;21.20;101753.00;;;;5010662;28;20270;-45
2023/09/30 03:26:35;;;;;;;2.83;2.43;;;20.60;65.40;21.20;101760.00;;;;5010426;28;20183;-46
2023/09/30 03:29:01;;;;;;;3.40;2.70;;;20.60;65.30;21.20;101763.00;;;;5010282;28;20198;-44
2023/09/30 03:31:27;;;;;;;2.87;2.43;;;20.70;65.40;21.20;101765.00;;;;5010111;28;20176;-45
2023/09/30 03:33:53;;;;;;;3.27;2.57;;;20.60;65.40;21.20;101766.00;;;;5009727;28;20187;-45
2023/09/30 03:36:25;;;;;;;3.03;2.30;;;20.60;65.40;21.20;101759.00;;;;5010165;28;20198;-44
2023/09/30 03:38:58;;;;;;;4.37;2.43;;;20.60;65.60;21.20;101769.00;;;;5010062;28;20630;-44
2023/09/30 03:41:24;;;;;;;2.87;2.40;;;20.60;65.50;21.20;101753.00;;;;5010197;28;20656;-44
2023/09/30 03:43:50;;;;;;;2.93;2.43;;;20.60;65.40;21.20;101749.00;;;;5009980;28;20281;-45
2023/09/30 03:46:16;;;;;;;4.27;2.50;;;20.60;65.30;21.20;101745.00;;;;5010529;28;20179;-45
2023/09/30 03:48:44;;;;;;;3.87;2.40;;;20.60;65.40;21.20;101746.00;;;;5010122;28;20197;-45
2023/09/30 03:51:16;;;;;;;2.53;2.27;;;20.60;65.40;21.10;101735.00;;;;5010122;28;20186;-45
2023/09/30 03:53:42;;;;;;;3.20;2.40;;;20.50;65.40;21.10;101738.00;;;;5009899;28;20238;-50
2023/09/30 03:56:08;;;;;;;6.10;2.80;;;20.50;65.40;21.10;101739.00;;;;5022640;28;20244;-44
2023/09/30 03:58:34;;;;;;;4.03;2.83;;;20.50;65.40;21.10;101747.00;;;;5012760;28;20222;-44
2023/09/30 04:01:04;;;;;;;4.73;2.90;;;20.50;65.50;21.10;101744.00;;;;5009790;28;20179;-44
2023/09/30 04:03:32;;;;;;;3.27;2.70;;;20.50;65.50;21.10;101726.00;;;;5006558;28;20946;-45
2023/09/30 04:05:58;;;;;;;4.07;2.70;;;20.50;65.60;21.10;101731.00;;;;5010128;28;20180;-44
2023/09/30 04:08:24;;;;;;;3.50;2.50;;;20.50;65.60;21.00;101720.00;;;;5012868;28;20241;-46
2023/09/30 04:10:49;;;;;;;6.77;2.97;;;20.50;65.60;21.00;101724.00;;;;5021639;28;20179;-44
2023/09/30 04:13:15;;;;;;;5.13;2.63;;;20.40;65.50;21.00;101742.00;;;;5008497;28;20207;-44
2023/09/30 04:15:41;;;;;;;4.47;2.67;;;20.40;65.50;21.00;101682.00;;;;5010877;28;20179;-49
2023/09/30 04:18:06;;;;;;;3.30;2.60;;;20.40;65.60;21.00;101753.00;;;;5010488;28;20182;-45
2023/09/30 04:20:32;;;;;;;4.57;2.80;;;20.40;65.50;21.00;101737.00;;;;5009768;28;20199;-45
2023/09/30 04:22:58;;;;;;;6.50;2.87;;;20.40;65.50;21.00;101738.00;;;;5009288;28;20212;-44
2023/09/30 04:25:27;;;;;;;7.97;2.97;;;20.40;65.60;21.00;101741.00;;;;5009089;28;20249;-44
2023/09/30 04:27:53;;;;;;;11.60;3.33;;;20.40;66.40;21.00;101745.00;;;;5009191;28;20203;-44
2023/09/30 04:30:19;;;;;;;7.50;3.10;;;20.40;65.70;21.00;101734.00;;;;5009626;28;20180;-45
2023/09/30 04:32:45;;;;;;;5.47;2.57;;;20.40;65.60;21.00;101734.00;;;;5009272;28;20760;-45
2023/09/30 04:35:11;;;;;;;10.53;3.00;;;20.40;65.80;21.00;101735.00;;;;5008769;28;20722;-45
2023/09/30 04:37:37;;;;;;;12.80;2.97;;;20.40;66.40;20.90;101714.00;;;;5008119;28;20689;-45
2023/09/30 04:40:07;;;;;;;7.97;3.00;;;20.30;66.50;20.90;101727.00;;;;5009347;28;20186;-43
2023/09/30 04:42:36;;;;;;;8.60;2.87;;;20.30;66.60;20.90;101734.00;;;;5009171;28;20207;-44
2023/09/30 04:45:09;;;;;;;6.57;2.60;;;20.40;66.60;20.90;101745.00;;;;5009162;28;20194;-44
2023/09/30 04:47:35;;;;;;;7.17;2.80;;;20.40;66.60;20.90;101759.00;;;;5008963;28;20605;-44
2023/09/30 04:50:04;;;;;;;4.80;2.50;;;20.30;66.50;20.90;101758.00;;;;5004819;28;20203;-44
2023/09/30 04:52:30;;;;;;;9.20;3.03;;;20.40;66.60;20.90;101771.00;;;;5008476;28;20614;-44
2023/09/30 04:54:56;;;;;;;5.27;2.70;;;20.40;66.70;20.90;101761.00;;;;5006745;28;20209;-45
2023/09/30 04:57:22;;;;;;;5.20;2.67;;;20.40;66.70;20.90;101759.00;;;;5008283;28;20184;-49
2023/09/30 04:59:48;;;;;;;5.53;2.70;;;20.30;66.80;20.90;101765.00;;;;5008363;28;20667;-51
2023/09/30 05:02:16;;;;;;;7.93;2.80;;;20.30;66.90;20.90;101768.00;;;;5008523;28;20205;-50
2023/09/30 05:04:42;;;;;;;3.73;2.80;;;20.40;66.90;20.90;101764.00;;;;5008544;28;20268;-51
2023/09/30 05:07:08;;;;;;;5.43;2.57;;;20.40;66.80;20.90;101768.00;;;;5009435;28;20182;-50
2023/09/30 05:09:34;;;;;;;9.57;3.23;;;20.40;66.90;20.90;101754.00;;;;5013338;28;20193;-50
2023/09/30 05:12:00;;;;;;;8.20;2.73;;;20.30;66.90;20.90;101760.00;;;;5010850;28;20211;-51
2023/09/30 05:14:27;;;;;;;6.63;2.97;;;20.30;67.00;20.90;101772.00;;;;5015761;28;20191;-51
2023/09/30 05:16:53;;;;;;;5.50;2.53;;;20.30;67.00;20.80;101776.00;;;;5013300;28;20218;-50
2023/09/30 05:19:20;;;;;;;3.50;2.40;;;20.20;67.00;20.80;101788.00;;;;5012318;28;20293;-51
2023/09/30 05:21:47;;;;;;;5.07;2.53;;;20.20;67.10;20.80;101783.00;;;;5012033;28;20226;-50
2023/09/30 05:24:12;;;;;;;5.50;2.60;;;20.20;67.20;20.80;101780.00;;;;5012226;28;20187;-50
2023/09/30 05:26:38;;;;;;;5.97;2.70;;;20.20;67.10;20.80;101784.00;;;;5011812;28;20179;-50
2023/09/30 05:29:04;;;;;;;4.90;2.70;;;20.20;67.20;20.80;101786.00;;;;5011824;28;20187;-50
2023/09/30 05:31:30;;;;;;;4.50;2.53;;;20.20;67.20;20.80;101777.00;;;;5011805;28;20176;-50
2023/09/30 05:33:56;;;;;;;6.27;2.60;;;20.20;67.40;20.80;101785.00;;;;5011845;28;20255;-51
2023/09/30 05:36:22;;;;;;;5.23;2.70;;;20.20;67.30;20.80;101791.00;;;;5011676;28;20179;-50
2023/09/30 05:38:48;;;;;;;2.97;2.30;;;20.20;67.40;20.80;101804.00;;;;5011863;28;20187;-50
2023/09/30 05:41:17;;;;;;;3.27;2.30;;;20.20;67.30;20.70;101800.00;;;;4994110;28;20543;-50
2023/09/30 05:43:43;;;;;;;3.50;2.60;;;20.20;67.20;20.70;101797.00;;;;5011175;28;20702;-50
2023/09/30 05:46:09;;;;;;;2.57;2.23;;;20.20;67.40;20.70;101793.00;;;;5011571;28;20189;-50
2023/09/30 05:48:35;;;;;;;3.27;2.40;;;20.10;67.20;20.70;101795.00;;;;5011886;28;20182;-50
2023/09/30 05:51:01;;;;;;;4.67;2.40;;;20.20;67.40;20.70;101804.00;;;;5017207;28;20173;-50
2023/09/30 05:53:28;;;;;;;3.80;2.43;;;20.10;67.20;20.70;101796.00;;;;5025986;28;20240;-50
2023/09/30 05:55:54;;;;;;;2.87;2.17;;;20.10;67.20;20.70;101792.00;;;;5011379;28;20191;-50
2023/09/30 05:58:20;;;;;;;2.80;2.20;;;20.10;67.20;20.70;101800.00;;;;5011591;28;20187;-50
2023/09/30 06:00:46;;;;;;;3.33;2.40;;;20.10;67.20;20.70;101810.00;;;;5012016;28;20184;-50
2023/09/30 06:03:11;;;;;;;2.90;2.13;;;20.10;67.30;20.70;101800.00;;;;5011074;28;20214;-50
2023/09/30 06:05:40;;;;;;;4.13;2.33;;;20.10;67.30;20.70;101796.00;;;;5017570;28;20175;-50
2023/09/30 06:08:10;;;;;;;3.80;2.20;;;20.10;67.30;20.70;101800.00;;;;5014030;28;20234;-50
2023/09/30 06:10:37;;;;;;;2.93;2.20;;;20.10;67.40;20.60;101803.00;;;;5009967;28;20545;-50
2023/09/30 06:13:04;;;;;;;3.40;2.30;;;20.10;67.40;20.60;101793.00;;;;5011253;28;20196;-50
2023/09/30 06:15:29;;;;;;;3.43;2.10;;;20.10;67.40;20.60;101799.00;;;;5010793;28;20604;-51
2023/09/30 06:17:56;;;;;;;2.47;2.13;;;20.10;67.40;20.60;101794.00;;;;5010540;28;20208;-50
2023/09/30 06:20:22;;;;;;;3.83;2.60;;;20.10;67.40;20.60;101795.00;;;;5009992;28;20187;-50
2023/09/30 06:22:51;;;;;;;2.40;2.07;;;20.10;67.50;20.60;101800.00;;;;5011022;28;20218;-50
2023/09/30 06:25:17;;;;;;;2.80;2.20;;;20.10;67.50;20.60;101807.00;;;;5009282;28;20177;-50
2023/09/30 06:27:47;;;;;;;2.47;2.10;;;20.10;67.60;20.60;101804.00;;;;5010081;28;20233;-50
2023/09/30 06:30:13;;;;;;;2.33;2.00;;;20.00;67.50;20.50;101812.00;;;;5011152;28;20358;-50
2023/09/30 06:32:40;;;;;;;2.40;2.10;;;20.00;67.60;20.60;101806.00;;;;5010867;28;20203;-51
2023/09/30 06:35:09;;;;;;;2.80;2.30;;;20.00;67.60;20.60;101802.00;;;;5010093;28;20177;-50
2023/09/30 06:37:41;;;;;;;2.70;2.20;;;20.00;67.60;20.50;101801.00;;;;5010627;28;20250;-50
2023/09/30 06:40:08;;;;;;;3.63;2.40;;;20.00;67.60;20.50;101793.00;;;;5010540;28;20179;-50
2023/09/30 06:42:37;;;;;;;2.97;2.10;;;20.00;67.60;20.50;101803.00;;;;5010632;28;20215;-50
2023/09/30 06:45:05;;;;;;;2.90;2.07;;;20.00;67.80;20.50;101810.00;;;;5010197;28;20203;-50
2023/09/30 06:47:37;;;;;;;2.27;2.07;;;20.00;67.80;20.50;101816.00;;;;5007638;28;20179;-50
2023/09/30 06:50:07;;;;;;;2.77;2.10;;;19.90;67.70;20.50;101807.00;;;;5010522;28;20254;-50
2023/09/30 06:52:38;;;;;;;2.97;2.00;;;19.90;67.70;20.50;101828.00;;;;5010708;28;20217;-50
2023/09/30 06:55:04;;;;;;;2.20;2.00;;;19.90;67.70;20.50;101833.00;;;;5009951;28;20193;-50
2023/09/30 06:57:36;;;;;;;3.60;2.10;;;19.90;67.80;20.50;101825.00;;;;5010567;28;20666;-50
2023/09/30 07:00:12;;;;;;;2.40;2.10;;;19.90;67.80;20.50;101808.00;;;;5010572;28;20177;-51
2023/09/30 07:02:38;;;;;;;2.97;2.10;;;19.90;67.80;20.50;101842.00;;;;5010385;28;20211;-51
2023/09/30 07:05:08;;;;;;;2.40;2.00;;;19.90;67.90;20.40;101835.00;;;;5009831;28;20324;-51
2023/09/30 07:07:34;;;;;;;2.50;2.00;;;19.90;67.90;20.40;101826.00;;;;5010380;28;20185;-50
2023/09/30 07:10:00;;;;;;;2.20;2.00;;;19.90;68.00;20.40;101826.00;;;;5010267;28;20178;-51
2023/09/30 07:12:26;;;;;;;2.53;2.10;;;19.90;68.00;20.40;101822.00;;;;5009372;28;20206;-50
2023/09/30 07:14:52;;;;;;;2.30;2.10;;;19.90;68.10;20.40;101824.00;;;;5009178;28;20216;-49
2023/09/30 07:17:18;;;;;;;2.20;2.00;;;19.90;68.20;20.40;101822.00;;;;5010175;28;20182;-50
2023/09/30 07:19:44;;;;;;;2.30;2.10;;;19.90;68.20;20.40;101833.00;;;;5010094;28;20662;-50
2023/09/30 07:22:09;;;;;;;2.33;1.77;;;19.90;68.20;20.40;101833.00;;;;5008798;28;20203;-50
2023/09/30 07:24:35;;;;;;;2.17;1.97;;;19.80;68.10;20.40;101845.00;;;;5009988;28;20184;-50
2023/09/30 07:27:01;;;;;;;2.47;1.90;;;19.90;68.20;20.40;101844.00;;;;5009961;28;20207;-51
2023/09/30 07:29:27;;;;;;;2.37;2.17;;;19.90;68.30;20.40;101837.00;;;;5009099;28;20172;-51
2023/09/30 07:31:53;;;;;;;2.40;2.20;;;19.90;68.40;20.40;101841.00;;;;5009741;28;20674;-51
2023/09/30 07:34:18;;;;;;;2.70;2.17;;;19.80;68.40;20.40;101850.00;;;;5009724;28;20178;-50
2023/09/30 07:36:44;;;;;;;2.97;2.13;;;19.90;68.70;20.40;101836.00;;;;5008174;28;20672;-50
2023/09/30 07:39:10;;;;;;;2.53;2.00;;;19.80;68.80;20.40;101857.00;;;;5009270;28;20261;-50
2023/09/30 07:41:38;;;;;;;2.83;2.13;;;19.80;68.80;20.40;101871.00;;;;4988523;28;20186;-50
2023/09/30 07:44:05;;;;;;;6.17;2.20;;;19.80;69.00;20.40;101877.00;;;;5009479;28;20545;-50
2023/09/30 07:46:31;;;;;;;4.00;2.07;;;19.80;69.20;20.40;101883.00;;;;5006717;28;20454;-51
2023/09/30 07:48:59;;;;;;;2.60;2.00;;;19.80;69.20;20.40;101882.00;;;;5025970;28;20182;-55
2023/09/30 07:51:24;;;;;;;3.20;2.20;;;19.80;69.30;20.40;101886.00;;;;5016102;28;20193;-50
2023/09/30 07:53:50;;;;;;;2.73;2.10;;;19.80;69.30;20.40;101882.00;;;;5009337;28;20206;-51
2023/09/30 07:56:16;;;;;;;3.57;2.10;;;19.80;69.40;20.40;101870.00;;;;5009194;28;20198;-51
2023/09/30 07:58:42;;;;;;;2.40;2.20;;;19.80;69.40;20.40;101878.00;;;;5008591;28;20244;-50
2023/09/30 08:01:08;;;;;;;4.33;2.30;;;19.80;69.50;20.40;101876.00;;;;5009258;28;20263;-51
2023/09/30 08:03:34;;;;;;;4.73;2.20;;;19.80;69.60;20.40;101888.00;;;;5020469;28;20226;-50
2023/09/30 08:06:02;;;;;;;3.73;2.10;;;19.70;69.50;20.40;101889.00;;;;5011689;28;20616;-50
2023/09/30 08:08:29;;;;;;;2.40;2.10;;;19.70;69.70;20.30;101870.00;;;;5008225;28;20190;-50
2023/09/30 08:10:56;;;;;;;2.30;2.10;;;19.70;69.70;20.30;101893.00;;;;5010220;28;20182;-50
2023/09/30 08:13:25;;;;;;;2.43;2.23;;;19.70;69.80;20.30;101895.00;;;;5008276;28;20235;-50
2023/09/30 08:15:51;;;;;;;2.20;1.90;;;19.70;69.90;20.30;101905.00;;;;5009709;28;20190;-50
2023/09/30 08:18:17;;;;;;;3.73;2.20;;;19.70;69.80;20.30;101892.00;;;;5005038;28;20425;-50
2023/09/30 08:20:43;;;;;;;2.60;2.00;;;19.70;69.90;20.30;101903.00;;;;5007938;28;20182;-50
2023/09/30 08:23:09;;;;;;;2.97;2.10;;;19.70;70.00;20.30;101903.00;;;;5008882;28;20620;-50
2023/09/30 08:25:35;;;;;;;2.73;1.93;;;19.70;70.00;20.30;101902.00;;;;5009312;28;20187;-50
2023/09/30 08:28:00;;;;;;;2.30;2.00;;;19.70;70.10;20.30;101910.00;;;;5000127;28;20183;-51
2023/09/30 08:30:26;;;;;;;2.20;1.93;;;19.70;70.10;20.30;101913.00;;;;5008323;28;20182;-50
2023/09/30 08:32:52;;;;;;;3.63;2.27;;;19.70;70.10;20.30;101925.00;;;;5009046;28;20214;-51
2023/09/30 08:35:17;;;;;;;3.97;2.20;;;19.70;70.20;20.30;101923.00;;;;5008578;28;20186;-50
2023/09/30 08:37:43;;;;;;;3.10;2.07;;;19.70;70.30;20.30;101910.00;;;;5008530;28;20287;-50
2023/09/30 08:40:10;;;;;;;2.70;2.30;;;19.70;70.40;20.30;101913.00;;;;5008509;28;20184;-51
2023/09/30 08:42:35;;;;;;;3.90;2.17;;;19.70;70.40;20.30;101919.00;;;;5010888;28;20229;-50
2023/09/30 08:45:03;;;;;;;2.37;1.90;;;19.70;70.40;20.30;101909.00;;;;4995242;28;20197;-50
2023/09/30 08:47:29;;;;;;;2.67;2.17;;;19.70;70.50;20.30;101921.00;;;;5012282;28;20189;-53
2023/09/30 08:49:57;;;;;;;3.23;2.07;;;19.70;70.60;20.30;101926.00;;;;5011798;28;20574;-51
2023/09/30 08:52:23;;;;;;;2.30;2.10;;;19.70;70.90;20.10;101910.00;;;;4993809;28;20231;-50
2023/09/30 08:54:49;;;;;;;2.53;2.00;;;19.70;70.90;20.30;101928.00;;;;4996072;28;20191;-50
2023/09/30 08:57:15;;;;;;;3.97;2.43;;;19.70;71.30;20.30;101937.00;;;;4997332;28;20252;-50
2023/09/30 08:59:41;;;;;;;4.73;2.43;;;19.70;71.80;20.30;101905.00;;;;4977747;28;20177;-52
2023/09/30 09:02:08;;;;;;;6.33;2.43;;;19.70;72.50;20.30;101916.00;;;;4994267;28;20208;-50
2023/09/30 09:04:34;;;;;;;6.73;2.77;;;19.70;71.90;20.30;101913.00;;;;5010773;28;20810;-50
2023/09/30 09:07:00;;;;;;;9.53;2.90;;;19.80;72.20;20.40;101907.00;;;;5011196;28;20179;-50
2023/09/30 09:09:26;;;;;;;7.60;3.10;;;19.80;72.50;20.40;101897.00;;;;5010773;28;20197;-51
2023/09/30 09:11:51;;;;;;;8.37;2.80;;;19.70;72.40;20.40;101891.00;;;;5012556;28;20196;-51
2023/09/30 09:14:17;;;;;;;8.93;3.00;;;19.80;72.80;20.40;101877.00;;;;5010618;28;20173;-50
2023/09/30 09:16:54;;;;;;;7.83;2.80;;;19.70;72.70;20.40;101873.00;;;;5011698;28;20608;-51
2023/09/30 09:19:23;;;;;;;4.07;2.70;;;19.80;72.90;20.40;101874.00;;;;5011342;28;20688;-50
2023/09/30 09:22:04;;;;;;;3.83;2.90;;;19.80;72.90;20.40;101874.00;;;;5012612;28;20244;-50
2023/09/30 09:24:34;;;;;;;3.77;2.83;;;19.80;73.00;20.40;101880.00;;;;5012689;28;20181;-50
2023/09/30 09:27:11;;;;;;;6.03;2.77;;;19.80;73.10;20.40;101886.00;;;;5012581;28;20178;-50
2023/09/30 09:29:37;;;;;;;5.47;2.50;;;19.80;73.10;20.40;101874.00;;;;5012537;28;20612;-50
2023/09/30 09:32:10;;;;;;;5.30;2.60;;;19.80;73.30;20.40;101870.00;;;;5012575;28;20204;-50
2023/09/30 09:34:36;;;;;;;4.50;2.60;;;19.80;73.40;20.40;101873.00;;;;5011439;28;20183;-51
2023/09/30 09:37:19;;;;;;;5.27;3.03;;;19.80;73.10;20.40;101863.00;;;;5011128;28;20519;-51
2023/09/30 09:39:57;;;;;;;4.00;2.63;;;19.80;73.40;20.40;101864.00;;;;5012107;28;20172;-51
2023/09/30 09:42:31;;;;;;;3.63;2.60;;;19.80;73.40;20.40;101881.00;;;;5012347;28;20269;-51
2023/09/30 09:45:05;;;;;;;4.60;2.97;;;19.80;73.50;20.40;101877.00;;;;5010972;28;20203;-50
2023/09/30 09:47:32;;;;;;;4.87;2.87;;;19.80;73.40;20.50;101875.00;;;;5033342;28;20159;-50
2023/09/30 09:49:58;;;;;;;3.67;2.60;;;19.90;73.30;20.50;101874.00;;;;5015577;28;20219;-50
2023/09/30 09:52:24;;;;;;;5.97;2.83;;;19.80;73.40;20.50;101876.00;;;;5011800;28;20206;-50
2023/09/30 09:54:50;;;;;;;5.63;3.10;;;19.90;73.60;20.50;101880.00;;;;5011885;28;20183;-50
2023/09/30 09:57:17;;;;;;;4.40;2.70;;;19.80;73.70;20.50;101882.00;;;;5008643;28;20187;-51
2023/09/30 09:59:46;;;;;;;6.70;3.10;;;19.90;73.60;20.50;101881.00;;;;5011373;28;20554;-51
2023/09/30 10:02:17;;;;;;;5.30;3.13;;;19.80;73.40;20.50;101881.00;;;;5024598;28;20610;-51
2023/09/30 10:04:46;;;;;;;28.00;10.07;;;19.90;73.90;20.50;101887.00;;;;5009707;28;20636;-51
2023/09/30 10:07:43;;;;;;;57.67;19.63;;;19.90;74.50;20.50;101893.00;;;;5010103;28;20186;-51
2023/09/30 10:10:16;;;;;;;60.27;22.20;;;19.90;75.30;20.60;101892.00;;;;4980872;28;20179;-51
2023/09/30 10:12:42;;;;;;;70.60;27.37;;;19.90;76.90;20.60;101894.00;;;;4994154;28;20199;-51
2023/09/30 10:15:26;;;;;;;60.97;27.70;;;20.00;78.90;20.60;101898.00;;;;5011084;28;20264;-50
2023/09/30 10:18:03;;;;;;;65.23;29.43;;;20.00;79.90;20.60;101906.00;;;;5011358;28;20330;-50
2023/09/30 10:20:34;;;;;;;63.13;29.50;;;20.00;80.50;20.70;101905.00;;;;5011549;28;20556;-51
2023/09/30 10:23:19;;;;;;;60.03;28.17;;;20.00;80.30;20.70;101916.00;;;;5011170;28;20223;-47
2023/09/30 10:25:49;;;;;;;60.20;28.47;;;20.00;81.00;20.70;101918.00;;;;5010900;28;20180;-46
2023/09/30 10:28:37;;;;;;;53.77;24.80;;;20.10;80.90;20.70;101915.00;;;;5010798;28;20183;-46
2023/09/30 10:31:13;;;;;;;50.60;23.97;;;20.10;80.10;20.70;101904.00;;;;5011029;28;20191;-47
2023/09/30 10:34:01;;;;;;;51.57;22.33;;;20.10;79.60;20.70;101912.00;;;;5010242;28;20283;-53
2023/09/30 10:36:34;;;;;;;45.33;21.60;;;20.00;78.80;20.70;101902.00;;;;5010905;28;20559;-46
2023/09/30 10:39:00;;;;;;;45.47;20.07;;;20.00;78.50;20.70;101903.00;;;;4993677;28;20265;-47
2023/09/30 10:41:45;;;;;;;38.03;19.13;;;20.10;79.10;20.70;101895.00;;;;5010150;28;20216;-46
2023/09/30 10:44:38;;;;;;;33.60;16.53;;;20.00;79.00;20.70;101897.00;;;;5010341;28;20191;-46
2023/09/30 10:47:22;;;;;;;31.47;15.50;;;20.10;80.00;20.80;101899.00;;;;5006046;28;20247;-46